Uvalde Research's Hourly Summary for Tuesday, July 10, 2018
Hour Temp
(f)
RH
(%)
Solar Rad.
(MJ/m2)
Rainfall
(in)
Wind
(mph)
7/10/2018 12:00 AM 75 88 0 0 3.06
7/10/2018 1:00 AM 75 89 0 0 2.55
7/10/2018 2:00 AM 74 93 0 0 1.15
7/10/2018 3:00 AM 73 95 0 0 0.68
7/10/2018 4:00 AM 72 98 0 0 1.73
7/10/2018 5:00 AM 73 98 0 0 1.62
7/10/2018 6:00 AM 73 98 0.01 0 1.94
7/10/2018 7:00 AM 73 98 0.17 0 1.4
7/10/2018 8:00 AM 74 96 0.63 0 2.23
7/10/2018 9:00 AM 77 85 1.17 0 2.38
7/10/2018 10:00 AM 79 75 1.66 0 2.28
7/10/2018 11:00 AM 84 63 2.54 0 2.25
7/10/2018 12:00 PM 86 56 2.85 0 2.48
7/10/2018 1:00 PM 88 50 2.94 0 3.57
7/10/2018 2:00 PM 90 46 2.65 0 3.28
7/10/2018 3:00 PM 91 43 2.49 0 3.34
7/10/2018 4:00 PM 92 40 1.98 0 3.69
7/10/2018 5:00 PM 93 38 1.63 0 3.46
7/10/2018 6:00 PM 93 37 1.24 0 3.88
7/10/2018 7:00 PM 92 39 0.5 0 3.91
7/10/2018 8:00 PM 89 44 0.05 0 3.62
7/10/2018 9:00 PM 86 52 0 0 2.85
7/10/2018 10:00 PM 83 62 0 0 2.47
7/10/2018 11:00 PM 81 68 0 0 2.39
Data Summary 81 68 22.51 0.00 2.59